createdAt,value
2023-03-29T00:02:04.806Z,101254.56
2023-03-29T00:07:07.576Z,101252.31
2023-03-29T00:12:11.464Z,101254.13
2023-03-29T00:17:13.740Z,101267.47
2023-03-29T00:22:15.959Z,101264.47
2023-03-29T00:27:18.093Z,101267.88
2023-03-29T00:32:20.245Z,101261.72
2023-03-29T00:37:22.872Z,101254.97
2023-03-29T00:42:26.563Z,101268.84
2023-03-29T00:47:40.474Z,101297.53
2023-03-29T00:52:48.432Z,101294.63
2023-03-29T00:57:53.990Z,101296.16
2023-03-29T01:03:01.990Z,101306.56
2023-03-29T01:08:09.355Z,101280.31
2023-03-29T01:13:17.713Z,101294.88
2023-03-29T01:18:22.375Z,101302.91
2023-03-29T01:23:40.163Z,101300.22
2023-03-29T01:28:52.022Z,101298.41
2023-03-29T01:34:01.998Z,101308.03
2023-03-29T01:39:06.403Z,101304.53
2023-03-29T01:44:38.112Z,101325.16
2023-03-29T01:50:06.777Z,101312.59
2023-03-29T01:55:20.952Z,101311.03
2023-03-29T02:00:27.858Z,101318.75
2023-03-29T02:05:32.006Z,101305.97
2023-03-29T02:10:35.581Z,101359.75
2023-03-29T02:15:38.910Z,101348.81
2023-03-29T02:20:43.936Z,101379.13
2023-03-29T02:25:47.213Z,101355.00
2023-03-29T02:31:08.514Z,101375.03
2023-03-29T02:36:22.794Z,101397.09
2023-03-29T02:41:26.832Z,101395.34
2023-03-29T02:46:29.148Z,101398.28
2023-03-29T02:51:34.603Z,101399.66
2023-03-29T02:56:45.555Z,101410.63
2023-03-29T03:01:47.895Z,101419.19
2023-03-29T03:06:50.129Z,101427.75
2023-03-29T03:11:52.321Z,101413.44
2023-03-29T03:16:55.422Z,101434.81
2023-03-29T03:21:57.757Z,101425.72
2023-03-29T03:27:00.097Z,101421.94
2023-03-29T03:32:02.466Z,101437.44
2023-03-29T03:37:04.630Z,101452.78
2023-03-29T03:42:08.452Z,101434.25
2023-03-29T03:47:10.991Z,101457.41
2023-03-29T03:52:13.489Z,101437.19
2023-03-29T03:57:15.600Z,101421.00
2023-03-29T04:02:18.157Z,101429.88
2023-03-29T04:07:20.387Z,101449.69
2023-03-29T04:12:22.631Z,101463.59
2023-03-29T04:17:24.870Z,101454.03
2023-03-29T04:22:27.623Z,101442.63
2023-03-29T04:27:29.917Z,101466.81
2023-03-29T04:32:32.236Z,101480.53
2023-03-29T04:37:34.501Z,101489.22
2023-03-29T04:42:37.772Z,101476.56
2023-03-29T04:47:41.145Z,101483.22
2023-03-29T04:52:45.780Z,101484.47
2023-03-29T04:57:48.032Z,101486.44
2023-03-29T05:02:50.374Z,101475.41
2023-03-29T05:07:52.655Z,101493.34
2023-03-29T05:12:54.913Z,101491.09
2023-03-29T05:17:58.827Z,101513.41
2023-03-29T05:23:01.873Z,101507.69
2023-03-29T05:28:04.280Z,101528.97
2023-03-29T05:33:06.796Z,101545.00
2023-03-29T05:38:09.177Z,101538.72
2023-03-29T05:43:11.418Z,101534.88
2023-03-29T05:48:13.795Z,101520.91
2023-03-29T05:53:16.950Z,101546.47
2023-03-29T05:58:20.646Z,101566.03
2023-03-29T06:03:27.769Z,101560.13
2023-03-29T06:08:30.995Z,101560.72
2023-03-29T06:13:34.433Z,101549.84
2023-03-29T06:18:37.043Z,101545.38
2023-03-29T06:23:39.497Z,101562.34
2023-03-29T06:28:42.410Z,101566.03
2023-03-29T06:33:44.602Z,101566.47
2023-03-29T06:38:47.474Z,101587.41
2023-03-29T06:43:49.562Z,101572.09
2023-03-29T06:48:51.903Z,101586.13
2023-03-29T06:53:54.081Z,101588.69
2023-03-29T06:58:57.120Z,101589.34
2023-03-29T07:04:04.235Z,101596.41
2023-03-29T07:09:07.257Z,101617.94
2023-03-29T07:14:10.021Z,101605.53
2023-03-29T07:19:12.138Z,101604.19
2023-03-29T07:24:14.348Z,101608.59
2023-03-29T07:29:16.986Z,101606.09
2023-03-29T07:34:19.154Z,101616.09
2023-03-29T07:39:23.554Z,101628.78
2023-03-29T07:44:27.383Z,101620.56
2023-03-29T07:49:29.544Z,101608.66
2023-03-29T07:54:33.112Z,101608.81
2023-03-29T07:59:35.279Z,101616.03
2023-03-29T08:04:37.823Z,101639.19
2023-03-29T08:09:40.044Z,101606.28
2023-03-29T08:14:42.146Z,101615.78
2023-03-29T08:19:50.734Z,101615.34
2023-03-29T08:24:53.469Z,101603.44
2023-03-29T08:29:55.686Z,101620.38
2023-03-29T08:34:57.959Z,101585.56
2023-03-29T08:40:01.268Z,101586.25
2023-03-29T08:45:19.128Z,101582.66
2023-03-29T08:50:26.420Z,101588.94
2023-03-29T08:55:37.979Z,101577.00
2023-03-29T09:01:01.438Z,101586.78
2023-03-29T09:06:07.119Z,101590.13
2023-03-29T09:11:24.439Z,101592.34
2023-03-29T09:16:45.112Z,101585.75
2023-03-29T09:22:15.203Z,101570.97
2023-03-29T09:27:31.676Z,101566.28
2023-03-29T09:32:51.718Z,101538.06
2023-03-29T09:37:55.221Z,101557.53
2023-03-29T09:42:58.921Z,101543.69
2023-03-29T09:48:19.735Z,101552.66
2023-03-29T09:53:22.371Z,101564.56
2023-03-29T09:58:27.854Z,101536.78
2023-03-29T10:03:32.619Z,101546.84
2023-03-29T10:08:43.134Z,101554.56
2023-03-29T10:13:50.573Z,101531.13
2023-03-29T10:18:54.927Z,101520.28
2023-03-29T10:24:00.017Z,101510.50
2023-03-29T10:29:05.390Z,101504.34
2023-03-29T10:34:09.372Z,101502.38
2023-03-29T10:39:16.090Z,101499.38
2023-03-29T10:44:33.507Z,101481.78
2023-03-29T10:49:47.808Z,101476.38
2023-03-29T10:54:52.715Z,101448.50
2023-03-29T11:00:07.303Z,101437.72
2023-03-29T11:05:24.923Z,101454.00
2023-03-29T11:10:35.866Z,101439.09
2023-03-29T11:16:26.376Z,101456.22
2023-03-29T11:22:02.523Z,101429.22
2023-03-29T11:27:10.717Z,101434.69
2023-03-29T11:32:44.696Z,101418.47
2023-03-29T11:38:00.624Z,101397.13
2023-03-29T11:43:21.363Z,101391.88
2023-03-29T11:48:32.998Z,101369.91
2023-03-29T11:53:40.992Z,101376.56
2023-03-29T11:58:48.964Z,101357.25
2023-03-29T12:03:56.098Z,101357.25
2023-03-29T12:09:04.323Z,101356.81
2023-03-29T12:14:28.152Z,101336.88
2023-03-29T12:19:50.055Z,101346.81
2023-03-29T12:24:55.406Z,101330.66
2023-03-29T12:30:34.237Z,101313.22
2023-03-29T12:35:42.660Z,101319.97
2023-03-29T12:41:12.825Z,101294.97
2023-03-29T12:46:26.082Z,101298.50
2023-03-29T12:51:33.795Z,101283.25
2023-03-29T12:56:44.007Z,101269.84
2023-03-29T13:02:15.648Z,101270.34
2023-03-29T13:07:23.901Z,101257.94
2023-03-29T13:12:33.489Z,101236.25
2023-03-29T13:17:36.365Z,101258.28
2023-03-29T13:22:45.816Z,101236.09
2023-03-29T13:28:19.590Z,101249.81
2023-03-29T13:33:37.382Z,101249.91
2023-03-29T13:38:53.039Z,101217.31
2023-03-29T13:43:56.865Z,101212.91
2023-03-29T13:49:05.847Z,101197.56
2023-03-29T13:54:16.588Z,101189.63
2023-03-29T13:59:30.465Z,101189.56
2023-03-29T14:04:45.423Z,101195.28
2023-03-29T14:09:51.488Z,101191.53
2023-03-29T14:14:59.663Z,101185.91
2023-03-29T14:20:09.222Z,101190.81
2023-03-29T14:25:17.726Z,101184.38
2023-03-29T14:30:27.660Z,101153.19
2023-03-29T14:35:33.638Z,101162.47
2023-03-29T14:40:36.050Z,101145.38
2023-03-29T14:45:38.814Z,101143.69
2023-03-29T14:50:44.537Z,101144.84
2023-03-29T14:55:50.867Z,101146.84
2023-03-29T15:00:53.827Z,101151.59
2023-03-29T15:06:04.213Z,101133.03
2023-03-29T15:11:28.274Z,101142.63
2023-03-29T15:16:31.858Z,101149.38
2023-03-29T15:21:36.337Z,101142.97
2023-03-29T15:26:38.925Z,101162.59
2023-03-29T15:31:42.482Z,101166.28
2023-03-29T15:36:46.724Z,101162.16
2023-03-29T15:41:51.607Z,101164.84
2023-03-29T15:46:55.656Z,101152.41
2023-03-29T15:51:57.872Z,101163.41
2023-03-29T15:57:14.177Z,101151.13
2023-03-29T16:02:17.786Z,101174.50
2023-03-29T16:07:21.178Z,101166.63
2023-03-29T16:12:23.631Z,101171.34
2023-03-29T16:17:25.715Z,101192.97
2023-03-29T16:22:29.733Z,101197.88
2023-03-29T16:27:33.132Z,101213.88
2023-03-29T16:32:35.293Z,101195.16
2023-03-29T16:37:37.479Z,101217.66
2023-03-29T16:42:40.319Z,101214.31
2023-03-29T16:47:45.920Z,101232.91
2023-03-29T16:52:57.500Z,101244.84
2023-03-29T16:57:59.671Z,101250.00
2023-03-29T17:03:02.274Z,101249.34
2023-03-29T17:08:04.494Z,101242.84
2023-03-29T17:13:07.066Z,101233.81
2023-03-29T17:18:09.618Z,101271.59
2023-03-29T17:23:12.120Z,101256.00
2023-03-29T17:28:14.512Z,101259.50
2023-03-29T17:33:17.334Z,101284.75
2023-03-29T17:38:20.408Z,101282.97
2023-03-29T17:43:23.314Z,101314.34
2023-03-29T17:48:26.169Z,101301.88
2023-03-29T17:53:28.553Z,101298.69
2023-03-29T17:58:30.914Z,101329.06
2023-03-29T18:03:33.441Z,101308.00
2023-03-29T18:08:36.234Z,101338.78
2023-03-29T18:13:40.138Z,101363.75
2023-03-29T18:18:44.514Z,101344.75
2023-03-29T18:23:48.320Z,101378.00
2023-03-29T18:28:51.476Z,101341.59
2023-03-29T18:33:53.652Z,101374.22
2023-03-29T18:38:56.234Z,101359.41
2023-03-29T18:44:00.481Z,101372.88
2023-03-29T18:49:03.297Z,101409.25
2023-03-29T18:54:06.647Z,101384.88
2023-03-29T18:59:08.929Z,101405.41
2023-03-29T19:04:11.201Z,101427.63
2023-03-29T19:09:13.325Z,101413.06
2023-03-29T19:14:15.813Z,101417.00
2023-03-29T19:19:19.012Z,101419.63
2023-03-29T19:24:22.295Z,101414.38
2023-03-29T19:29:24.565Z,101405.63
2023-03-29T19:34:27.078Z,101412.97
2023-03-29T19:39:30.134Z,101435.00
2023-03-29T19:44:32.343Z,101429.81
2023-03-29T19:49:36.907Z,101424.13
2023-03-29T19:54:39.309Z,101418.44
2023-03-29T19:59:43.234Z,101417.78
2023-03-29T20:04:46.087Z,101409.03
2023-03-29T20:09:48.175Z,101407.84
2023-03-29T20:14:50.327Z,101417.78
2023-03-29T20:19:54.264Z,101418.97
2023-03-29T20:24:57.361Z,101428.88
2023-03-29T20:29:59.486Z,101425.81
2023-03-29T20:35:01.766Z,101431.19
2023-03-29T20:40:05.750Z,101442.63
2023-03-29T20:45:09.236Z,101425.16
2023-03-29T20:50:11.467Z,101430.53
2023-03-29T20:55:13.650Z,101438.59
2023-03-29T21:00:16.324Z,101417.13
2023-03-29T21:05:19.675Z,101438.44
2023-03-29T21:10:23.934Z,101435.28
2023-03-29T21:15:28.452Z,101424.53
2023-03-29T21:20:30.792Z,101411.09
2023-03-29T21:25:32.985Z,101419.84
2023-03-29T21:30:35.099Z,101431.66
2023-03-29T21:35:37.526Z,101431.00
2023-03-29T21:40:39.748Z,101437.38
2023-03-29T21:45:41.879Z,101408.81
2023-03-29T21:50:44.573Z,101438.44
2023-03-29T21:55:49.593Z,101458.72
2023-03-29T22:00:51.915Z,101431.34
2023-03-29T22:06:02.955Z,101444.56
2023-03-29T22:11:12.075Z,101433.66
2023-03-29T22:16:17.031Z,101442.09
2023-03-29T22:21:24.661Z,101447.28
2023-03-29T22:26:31.903Z,101449.28
2023-03-29T22:31:34.170Z,101450.19
2023-03-29T22:36:37.102Z,101459.22
2023-03-29T22:41:39.579Z,101435.50
2023-03-29T22:46:41.772Z,101458.53
2023-03-29T22:51:43.903Z,101438.88
2023-03-29T22:56:46.063Z,101449.06
2023-03-29T23:01:48.699Z,101426.88
2023-03-29T23:06:51.025Z,101460.31
2023-03-29T23:11:53.143Z,101445.19
2023-03-29T23:16:56.638Z,101433.38
2023-03-29T23:21:59.012Z,101435.16
2023-03-29T23:27:02.033Z,101458.25
2023-03-29T23:32:05.606Z,101454.25
2023-03-29T23:37:07.794Z,101453.44
2023-03-29T23:42:10.009Z,101449.53
2023-03-29T23:47:12.180Z,101426.00
2023-03-29T23:52:14.354Z,101449.28
2023-03-29T23:57:16.538Z,101447.25
